Loretto, Michigan
Current Conditions -  °F | °C
As of 7:54 AM on Wednesday 26 Nov 2014 (Local Time) from KIMT Reporting Station
Overcast Overcast  
Wind Chill:   Ceiling: 7000
Heat Index:   Visibility: 10mi
Dew Point:   Wind: 3mph
Humidity: 84%   Direction: 320°NW
Pressure: 30.12"   Gusts: NA
Location:  45.78°N, 87.81°W
Report Text: KIMT 261354Z AUTO 32003KT 10SM OVC070 M16/M18 A3012 RMK AO2 SLP231 T11561178
Loading
Personal Weather Stations






























Interactive Weather Map New forecast layout! Learn more

10-Day Weather Forecast

Advertisements
Track Severe Weather on mobile